sensor_id;sensor_type;location;lat;lon;timestamp;P1;durP1;ratioP1;P2;durP2;ratioP2
61200;SDS011;47065;52.898;6.992;2023-06-24T00:01:28;8.80;;;7.95;;
61200;SDS011;47065;52.898;6.992;2023-06-24T00:03:54;8.98;;;8.15;;
61200;SDS011;47065;52.898;6.992;2023-06-24T00:06:19;10.93;;;9.00;;
61200;SDS011;47065;52.898;6.992;2023-06-24T00:08:47;11.20;;;9.07;;
61200;SDS011;47065;52.898;6.992;2023-06-24T00:11:14;11.35;;;9.00;;
61200;SDS011;47065;52.898;6.992;2023-06-24T00:13:40;11.10;;;9.55;;
61200;SDS011;47065;52.898;6.992;2023-06-24T00:16:07;11.32;;;9.05;;
61200;SDS011;47065;52.898;6.992;2023-06-24T00:18:33;9.23;;;8.13;;
61200;SDS011;47065;52.898;6.992;2023-06-24T00:20:59;12.55;;;9.98;;
61200;SDS011;47065;52.898;6.992;2023-06-24T00:23:26;11.40;;;9.82;;
61200;SDS011;47065;52.898;6.992;2023-06-24T00:25:53;10.75;;;8.35;;
61200;SDS011;47065;52.898;6.992;2023-06-24T00:28:20;13.23;;;8.10;;
61200;SDS011;47065;52.898;6.992;2023-06-24T00:30:46;14.43;;;9.02;;
61200;SDS011;47065;52.898;6.992;2023-06-24T00:33:13;11.93;;;10.27;;
61200;SDS011;47065;52.898;6.992;2023-06-24T00:35:39;11.15;;;9.65;;
61200;SDS011;47065;52.898;6.992;2023-06-24T00:38:05;12.25;;;9.20;;
61200;SDS011;47065;52.898;6.992;2023-06-24T00:40:31;11.65;;;9.00;;
61200;SDS011;47065;52.898;6.992;2023-06-24T00:42:58;12.95;;;8.82;;
61200;SDS011;47065;52.898;6.992;2023-06-24T00:45:24;8.48;;;7.57;;
61200;SDS011;47065;52.898;6.992;2023-06-24T00:47:50;10.00;;;8.55;;
61200;SDS011;47065;52.898;6.992;2023-06-24T00:50:20;13.02;;;8.63;;
61200;SDS011;47065;52.898;6.992;2023-06-24T00:52:46;11.40;;;9.75;;
61200;SDS011;47065;52.898;6.992;2023-06-24T00:55:12;12.90;;;8.65;;
61200;SDS011;47065;52.898;6.992;2023-06-24T00:57:41;11.38;;;9.60;;
61200;SDS011;47065;52.898;6.992;2023-06-24T01:00:07;11.80;;;9.90;;
61200;SDS011;47065;52.898;6.992;2023-06-24T01:02:39;12.93;;;9.57;;
61200;SDS011;47065;52.898;6.992;2023-06-24T01:05:07;12.18;;;10.43;;
61200;SDS011;47065;52.898;6.992;2023-06-24T01:07:34;11.85;;;10.20;;
61200;SDS011;47065;52.898;6.992;2023-06-24T01:10:05;13.35;;;10.93;;
61200;SDS011;47065;52.898;6.992;2023-06-24T01:12:35;14.25;;;11.93;;
61200;SDS011;47065;52.898;6.992;2023-06-24T01:15:03;17.13;;;12.43;;
61200;SDS011;47065;52.898;6.992;2023-06-24T01:17:38;18.48;;;12.50;;
61200;SDS011;47065;52.898;6.992;2023-06-24T01:20:27;16.83;;;11.98;;
61200;SDS011;47065;52.898;6.992;2023-06-24T01:35:12;15.07;;;12.02;;
61200;SDS011;47065;52.898;6.992;2023-06-24T01:37:46;15.05;;;11.93;;
61200;SDS011;47065;52.898;6.992;2023-06-24T01:40:25;18.33;;;12.68;;
61200;SDS011;47065;52.898;6.992;2023-06-24T01:42:52;14.32;;;11.40;;
61200;SDS011;47065;52.898;6.992;2023-06-24T01:45:21;14.65;;;12.32;;
61200;SDS011;47065;52.898;6.992;2023-06-24T01:47:52;13.95;;;10.48;;
61200;SDS011;47065;52.898;6.992;2023-06-24T01:50:26;12.50;;;10.63;;
61200;SDS011;47065;52.898;6.992;2023-06-24T01:52:55;12.20;;;9.68;;
61200;SDS011;47065;52.898;6.992;2023-06-24T01:55:22;13.23;;;9.82;;
61200;SDS011;47065;52.898;6.992;2023-06-24T01:57:49;9.38;;;8.02;;
61200;SDS011;47065;52.898;6.992;2023-06-24T02:00:16;10.68;;;8.57;;
61200;SDS011;47065;52.898;6.992;2023-06-24T02:02:43;12.05;;;8.82;;
61200;SDS011;47065;52.898;6.992;2023-06-24T02:05:10;9.52;;;8.52;;
61200;SDS011;47065;52.898;6.992;2023-06-24T02:07:38;15.38;;;10.00;;
61200;SDS011;47065;52.898;6.992;2023-06-24T02:10:05;14.80;;;9.63;;
61200;SDS011;47065;52.898;6.992;2023-06-24T02:12:32;11.38;;;10.18;;
61200;SDS011;47065;52.898;6.992;2023-06-24T02:14:58;12.35;;;9.90;;
61200;SDS011;47065;52.898;6.992;2023-06-24T02:17:27;12.70;;;10.32;;
61200;SDS011;47065;52.898;6.992;2023-06-24T02:19:54;11.32;;;9.90;;
61200;SDS011;47065;52.898;6.992;2023-06-24T02:22:20;11.07;;;8.93;;
61200;SDS011;47065;52.898;6.992;2023-06-24T02:24:47;12.05;;;8.90;;
61200;SDS011;47065;52.898;6.992;2023-06-24T02:27:15;7.15;;;5.88;;
61200;SDS011;47065;52.898;6.992;2023-06-24T02:29:41;9.75;;;7.68;;
61200;SDS011;47065;52.898;6.992;2023-06-24T02:32:08;13.75;;;8.52;;
61200;SDS011;47065;52.898;6.992;2023-06-24T02:34:35;11.32;;;9.45;;
61200;SDS011;47065;52.898;6.992;2023-06-24T02:37:01;15.00;;;9.48;;
61200;SDS011;47065;52.898;6.992;2023-06-24T02:39:26;14.45;;;9.48;;
61200;SDS011;47065;52.898;6.992;2023-06-24T02:41:52;15.65;;;11.02;;
61200;SDS011;47065;52.898;6.992;2023-06-24T02:44:18;17.85;;;11.25;;
61200;SDS011;47065;52.898;6.992;2023-06-24T02:46:44;13.38;;;10.48;;
61200;SDS011;47065;52.898;6.992;2023-06-24T02:49:12;12.90;;;11.05;;
61200;SDS011;47065;52.898;6.992;2023-06-24T02:51:41;14.38;;;11.75;;
61200;SDS011;47065;52.898;6.992;2023-06-24T02:54:07;19.80;;;12.23;;
61200;SDS011;47065;52.898;6.992;2023-06-24T02:56:34;15.45;;;11.85;;
61200;SDS011;47065;52.898;6.992;2023-06-24T02:59:06;16.80;;;11.95;;
61200;SDS011;47065;52.898;6.992;2023-06-24T03:01:32;13.75;;;11.02;;
61200;SDS011;47065;52.898;6.992;2023-06-24T03:04:04;15.55;;;10.68;;
61200;SDS011;47065;52.898;6.992;2023-06-24T03:06:30;20.60;;;10.98;;
61200;SDS011;47065;52.898;6.992;2023-06-24T03:08:57;14.35;;;10.80;;
61200;SDS011;47065;52.898;6.992;2023-06-24T03:11:23;16.25;;;11.02;;
61200;SDS011;47065;52.898;6.992;2023-06-24T03:13:50;17.45;;;11.02;;
61200;SDS011;47065;52.898;6.992;2023-06-24T03:16:16;16.95;;;10.82;;
61200;SDS011;47065;52.898;6.992;2023-06-24T03:18:42;12.80;;;10.95;;
61200;SDS011;47065;52.898;6.992;2023-06-24T03:21:08;14.55;;;10.63;;
61200;SDS011;47065;52.898;6.992;2023-06-24T03:23:36;15.15;;;10.10;;
61200;SDS011;47065;52.898;6.992;2023-06-24T03:26:02;15.68;;;11.43;;
61200;SDS011;47065;52.898;6.992;2023-06-24T03:28:31;17.17;;;10.45;;
61200;SDS011;47065;52.898;6.992;2023-06-24T03:30:57;14.57;;;11.32;;
61200;SDS011;47065;52.898;6.992;2023-06-24T03:33:23;15.55;;;10.77;;
61200;SDS011;47065;52.898;6.992;2023-06-24T03:35:49;12.85;;;11.07;;
61200;SDS011;47065;52.898;6.992;2023-06-24T03:38:16;17.70;;;12.35;;
61200;SDS011;47065;52.898;6.992;2023-06-24T03:40:41;15.23;;;12.07;;
61200;SDS011;47065;52.898;6.992;2023-06-24T03:43:08;17.00;;;12.15;;
61200;SDS011;47065;52.898;6.992;2023-06-24T03:45:34;14.85;;;11.90;;
61200;SDS011;47065;52.898;6.992;2023-06-24T03:48:00;17.60;;;12.55;;
61200;SDS011;47065;52.898;6.992;2023-06-24T03:50:26;15.00;;;12.27;;
61200;SDS011;47065;52.898;6.992;2023-06-24T03:52:51;14.15;;;11.60;;
61200;SDS011;47065;52.898;6.992;2023-06-24T03:55:17;16.95;;;12.77;;
61200;SDS011;47065;52.898;6.992;2023-06-24T03:57:43;14.20;;;11.55;;
61200;SDS011;47065;52.898;6.992;2023-06-24T04:00:08;19.50;;;12.95;;
61200;SDS011;47065;52.898;6.992;2023-06-24T04:02:40;16.70;;;12.32;;
61200;SDS011;47065;52.898;6.992;2023-06-24T04:05:07;17.95;;;12.35;;
61200;SDS011;47065;52.898;6.992;2023-06-24T04:07:33;15.80;;;12.32;;
61200;SDS011;47065;52.898;6.992;2023-06-24T04:10:00;16.98;;;12.40;;
61200;SDS011;47065;52.898;6.992;2023-06-24T04:12:27;19.13;;;13.05;;
61200;SDS011;47065;52.898;6.992;2023-06-24T04:14:53;18.15;;;13.25;;
61200;SDS011;47065;52.898;6.992;2023-06-24T04:17:18;20.02;;;13.07;;
61200;SDS011;47065;52.898;6.992;2023-06-24T04:19:44;16.60;;;12.88;;
61200;SDS011;47065;52.898;6.992;2023-06-24T04:22:10;15.13;;;12.32;;
61200;SDS011;47065;52.898;6.992;2023-06-24T04:24:35;17.27;;;12.25;;
61200;SDS011;47065;52.898;6.992;2023-06-24T04:27:01;18.83;;;12.18;;
61200;SDS011;47065;52.898;6.992;2023-06-24T04:29:27;15.32;;;11.15;;
61200;SDS011;47065;52.898;6.992;2023-06-24T04:31:52;21.10;;;12.93;;
61200;SDS011;47065;52.898;6.992;2023-06-24T04:34:18;15.90;;;12.50;;
61200;SDS011;47065;52.898;6.992;2023-06-24T04:36:43;15.77;;;11.75;;
61200;SDS011;47065;52.898;6.992;2023-06-24T04:39:09;16.45;;;12.10;;
61200;SDS011;47065;52.898;6.992;2023-06-24T04:41:35;15.70;;;12.48;;
61200;SDS011;47065;52.898;6.992;2023-06-24T04:44:00;18.60;;;13.63;;
61200;SDS011;47065;52.898;6.992;2023-06-24T04:46:26;13.93;;;11.82;;
61200;SDS011;47065;52.898;6.992;2023-06-24T04:48:51;14.73;;;11.15;;
61200;SDS011;47065;52.898;6.992;2023-06-24T04:51:17;16.20;;;11.82;;
61200;SDS011;47065;52.898;6.992;2023-06-24T04:53:43;16.35;;;11.57;;
61200;SDS011;47065;52.898;6.992;2023-06-24T04:56:08;17.60;;;11.52;;
61200;SDS011;47065;52.898;6.992;2023-06-24T04:58:34;15.35;;;12.18;;
61200;SDS011;47065;52.898;6.992;2023-06-24T05:01:00;16.75;;;11.23;;
61200;SDS011;47065;52.898;6.992;2023-06-24T05:03:25;16.55;;;12.75;;
61200;SDS011;47065;52.898;6.992;2023-06-24T05:05:51;17.08;;;11.40;;
61200;SDS011;47065;52.898;6.992;2023-06-24T05:08:16;17.25;;;12.75;;
61200;SDS011;47065;52.898;6.992;2023-06-24T05:10:42;15.80;;;12.30;;
61200;SDS011;47065;52.898;6.992;2023-06-24T05:13:08;14.68;;;11.10;;
61200;SDS011;47065;52.898;6.992;2023-06-24T05:15:33;14.50;;;10.98;;
61200;SDS011;47065;52.898;6.992;2023-06-24T05:17:59;15.05;;;11.85;;
61200;SDS011;47065;52.898;6.992;2023-06-24T05:20:25;16.05;;;12.10;;
61200;SDS011;47065;52.898;6.992;2023-06-24T05:22:50;16.38;;;12.65;;
61200;SDS011;47065;52.898;6.992;2023-06-24T05:25:16;13.75;;;11.60;;
61200;SDS011;47065;52.898;6.992;2023-06-24T05:27:42;15.20;;;11.52;;
61200;SDS011;47065;52.898;6.992;2023-06-24T05:30:09;14.65;;;11.98;;
61200;SDS011;47065;52.898;6.992;2023-06-24T05:32:35;18.83;;;11.30;;
61200;SDS011;47065;52.898;6.992;2023-06-24T05:35:01;15.82;;;12.63;;
61200;SDS011;47065;52.898;6.992;2023-06-24T05:37:27;15.73;;;12.27;;
61200;SDS011;47065;52.898;6.992;2023-06-24T05:39:53;14.52;;;10.65;;
61200;SDS011;47065;52.898;6.992;2023-06-24T05:42:19;14.57;;;11.73;;
61200;SDS011;47065;52.898;6.992;2023-06-24T05:44:44;15.85;;;11.55;;
61200;SDS011;47065;52.898;6.992;2023-06-24T05:47:10;16.13;;;12.63;;
61200;SDS011;47065;52.898;6.992;2023-06-24T05:49:36;16.90;;;11.93;;
61200;SDS011;47065;52.898;6.992;2023-06-24T05:52:01;18.88;;;11.85;;
61200;SDS011;47065;52.898;6.992;2023-06-24T05:54:27;15.80;;;11.57;;
61200;SDS011;47065;52.898;6.992;2023-06-24T05:56:53;15.70;;;10.45;;
61200;SDS011;47065;52.898;6.992;2023-06-24T05:59:18;12.05;;;10.43;;
61200;SDS011;47065;52.898;6.992;2023-06-24T06:01:44;12.77;;;10.82;;
61200;SDS011;47065;52.898;6.992;2023-06-24T06:04:10;12.50;;;11.18;;
61200;SDS011;47065;52.898;6.992;2023-06-24T06:06:35;14.25;;;11.55;;
61200;SDS011;47065;52.898;6.992;2023-06-24T06:09:01;11.85;;;10.10;;
61200;SDS011;47065;52.898;6.992;2023-06-24T06:11:27;15.50;;;11.38;;
61200;SDS011;47065;52.898;6.992;2023-06-24T06:13:53;13.00;;;10.57;;
61200;SDS011;47065;52.898;6.992;2023-06-24T06:16:19;14.10;;;10.75;;
61200;SDS011;47065;52.898;6.992;2023-06-24T06:18:44;12.90;;;9.98;;
61200;SDS011;47065;52.898;6.992;2023-06-24T06:21:10;11.07;;;8.85;;
61200;SDS011;47065;52.898;6.992;2023-06-24T06:23:36;12.70;;;10.02;;
61200;SDS011;47065;52.898;6.992;2023-06-24T06:26:01;13.82;;;10.25;;
61200;SDS011;47065;52.898;6.992;2023-06-24T06:28:27;18.48;;;10.80;;
61200;SDS011;47065;52.898;6.992;2023-06-24T06:30:53;12.98;;;9.00;;
61200;SDS011;47065;52.898;6.992;2023-06-24T06:33:19;14.25;;;9.52;;
61200;SDS011;47065;52.898;6.992;2023-06-24T06:35:45;12.02;;;9.82;;
61200;SDS011;47065;52.898;6.992;2023-06-24T06:38:11;13.07;;;9.80;;
61200;SDS011;47065;52.898;6.992;2023-06-24T06:40:36;10.95;;;9.80;;
61200;SDS011;47065;52.898;6.992;2023-06-24T06:43:02;11.55;;;9.80;;
61200;SDS011;47065;52.898;6.992;2023-06-24T06:45:28;10.05;;;8.95;;
61200;SDS011;47065;52.898;6.992;2023-06-24T06:47:53;10.18;;;9.05;;
61200;SDS011;47065;52.898;6.992;2023-06-24T06:50:19;13.48;;;9.35;;
61200;SDS011;47065;52.898;6.992;2023-06-24T06:52:45;10.23;;;8.98;;
61200;SDS011;47065;52.898;6.992;2023-06-24T06:55:10;12.85;;;8.63;;
61200;SDS011;47065;52.898;6.992;2023-06-24T06:57:36;10.43;;;8.48;;
61200;SDS011;47065;52.898;6.992;2023-06-24T07:00:02;11.38;;;8.57;;
61200;SDS011;47065;52.898;6.992;2023-06-24T07:02:28;12.23;;;7.32;;
61200;SDS011;47065;52.898;6.992;2023-06-24T07:04:54;9.63;;;8.07;;
61200;SDS011;47065;52.898;6.992;2023-06-24T07:07:20;9.40;;;7.25;;
61200;SDS011;47065;52.898;6.992;2023-06-24T07:09:45;9.70;;;6.97;;
61200;SDS011;47065;52.898;6.992;2023-06-24T07:12:12;10.82;;;6.93;;
61200;SDS011;47065;52.898;6.992;2023-06-24T07:14:38;6.97;;;6.18;;
61200;SDS011;47065;52.898;6.992;2023-06-24T07:17:04;8.65;;;6.88;;
61200;SDS011;47065;52.898;6.992;2023-06-24T07:19:30;9.88;;;6.43;;
61200;SDS011;47065;52.898;6.992;2023-06-24T07:21:56;6.55;;;5.72;;
61200;SDS011;47065;52.898;6.992;2023-06-24T07:24:21;8.60;;;5.97;;
61200;SDS011;47065;52.898;6.992;2023-06-24T07:26:47;6.68;;;5.97;;
61200;SDS011;47065;52.898;6.992;2023-06-24T07:29:13;7.47;;;5.72;;
61200;SDS011;47065;52.898;6.992;2023-06-24T07:31:38;6.97;;;5.10;;
61200;SDS011;47065;52.898;6.992;2023-06-24T07:34:04;6.13;;;5.53;;
61200;SDS011;47065;52.898;6.992;2023-06-24T07:36:30;7.72;;;6.05;;
61200;SDS011;47065;52.898;6.992;2023-06-24T07:38:56;6.22;;;5.53;;
61200;SDS011;47065;52.898;6.992;2023-06-24T07:41:22;7.10;;;5.30;;
61200;SDS011;47065;52.898;6.992;2023-06-24T07:43:47;5.97;;;5.38;;
61200;SDS011;47065;52.898;6.992;2023-06-24T07:46:13;11.05;;;6.25;;
61200;SDS011;47065;52.898;6.992;2023-06-24T07:48:40;8.20;;;5.72;;
61200;SDS011;47065;52.898;6.992;2023-06-24T07:51:05;6.68;;;5.93;;
61200;SDS011;47065;52.898;6.992;2023-06-24T07:53:31;6.43;;;5.75;;
61200;SDS011;47065;52.898;6.992;2023-06-24T07:55:58;6.53;;;5.53;;
61200;SDS011;47065;52.898;6.992;2023-06-24T07:58:24;7.45;;;6.75;;
61200;SDS011;47065;52.898;6.992;2023-06-24T08:00:50;9.07;;;6.43;;
61200;SDS011;47065;52.898;6.992;2023-06-24T08:03:15;9.40;;;6.22;;
61200;SDS011;47065;52.898;6.992;2023-06-24T08:05:41;8.73;;;6.00;;
61200;SDS011;47065;52.898;6.992;2023-06-24T08:08:07;11.27;;;7.57;;
61200;SDS011;47065;52.898;6.992;2023-06-24T08:10:33;8.35;;;7.07;;
61200;SDS011;47065;52.898;6.992;2023-06-24T08:12:59;7.78;;;6.85;;
61200;SDS011;47065;52.898;6.992;2023-06-24T08:15:24;9.02;;;6.70;;
61200;SDS011;47065;52.898;6.992;2023-06-24T08:17:51;11.02;;;7.72;;
61200;SDS011;47065;52.898;6.992;2023-06-24T08:20:17;9.82;;;7.10;;
61200;SDS011;47065;52.898;6.992;2023-06-24T08:22:43;8.20;;;6.78;;
61200;SDS011;47065;52.898;6.992;2023-06-24T08:25:08;8.05;;;7.20;;
61200;SDS011;47065;52.898;6.992;2023-06-24T08:27:34;8.10;;;7.20;;
61200;SDS011;47065;52.898;6.992;2023-06-24T08:30:00;9.27;;;7.75;;
61200;SDS011;47065;52.898;6.992;2023-06-24T08:32:25;10.15;;;6.90;;
61200;SDS011;47065;52.898;6.992;2023-06-24T08:34:51;7.85;;;7.05;;
61200;SDS011;47065;52.898;6.992;2023-06-24T08:37:17;6.38;;;5.78;;
61200;SDS011;47065;52.898;6.992;2023-06-24T08:39:43;7.35;;;6.35;;
61200;SDS011;47065;52.898;6.992;2023-06-24T08:42:08;8.38;;;6.80;;
61200;SDS011;47065;52.898;6.992;2023-06-24T08:44:34;9.20;;;6.68;;
61200;SDS011;47065;52.898;6.992;2023-06-24T08:46:59;8.50;;;6.25;;
61200;SDS011;47065;52.898;6.992;2023-06-24T08:49:28;9.07;;;6.93;;
61200;SDS011;47065;52.898;6.992;2023-06-24T08:52:14;7.63;;;6.35;;
61200;SDS011;47065;52.898;6.992;2023-06-24T08:54:42;7.10;;;6.40;;
61200;SDS011;47065;52.898;6.992;2023-06-24T08:57:12;7.35;;;6.75;;
61200;SDS011;47065;52.898;6.992;2023-06-24T08:59:40;7.75;;;6.95;;
61200;SDS011;47065;52.898;6.992;2023-06-24T09:02:07;7.90;;;5.93;;
61200;SDS011;47065;52.898;6.992;2023-06-24T09:04:33;6.55;;;5.95;;
61200;SDS011;47065;52.898;6.992;2023-06-24T09:06:59;6.05;;;5.10;;
61200;SDS011;47065;52.898;6.992;2023-06-24T09:09:25;5.22;;;4.72;;
61200;SDS011;47065;52.898;6.992;2023-06-24T09:11:56;9.27;;;5.40;;
61200;SDS011;47065;52.898;6.992;2023-06-24T09:14:26;5.28;;;4.78;;
61200;SDS011;47065;52.898;6.992;2023-06-24T09:16:56;5.90;;;5.35;;
61200;SDS011;47065;52.898;6.992;2023-06-24T09:19:24;6.22;;;5.07;;
61200;SDS011;47065;52.898;6.992;2023-06-24T09:21:54;5.78;;;4.50;;
61200;SDS011;47065;52.898;6.992;2023-06-24T09:24:30;6.18;;;4.60;;
61200;SDS011;47065;52.898;6.992;2023-06-24T09:26:57;6.07;;;5.45;;
61200;SDS011;47065;52.898;6.992;2023-06-24T09:29:26;7.68;;;6.28;;
61200;SDS011;47065;52.898;6.992;2023-06-24T09:31:53;5.75;;;5.25;;
61200;SDS011;47065;52.898;6.992;2023-06-24T09:34:20;6.72;;;5.32;;
61200;SDS011;47065;52.898;6.992;2023-06-24T09:36:53;7.00;;;5.53;;
61200;SDS011;47065;52.898;6.992;2023-06-24T09:39:22;6.45;;;5.85;;
61200;SDS011;47065;52.898;6.992;2023-06-24T09:41:53;6.60;;;5.25;;
61200;SDS011;47065;52.898;6.992;2023-06-24T09:44:23;9.02;;;6.93;;
61200;SDS011;47065;52.898;6.992;2023-06-24T09:46:50;7.18;;;6.10;;
61200;SDS011;47065;52.898;6.992;2023-06-24T09:49:16;7.10;;;5.78;;
61200;SDS011;47065;52.898;6.992;2023-06-24T09:51:45;6.43;;;5.70;;
61200;SDS011;47065;52.898;6.992;2023-06-24T09:54:12;9.13;;;6.93;;
61200;SDS011;47065;52.898;6.992;2023-06-24T09:56:40;7.30;;;4.97;;
61200;SDS011;47065;52.898;6.992;2023-06-24T09:59:09;4.75;;;4.20;;
61200;SDS011;47065;52.898;6.992;2023-06-24T10:01:39;7.00;;;4.82;;
61200;SDS011;47065;52.898;6.992;2023-06-24T10:04:06;4.13;;;3.80;;
61200;SDS011;47065;52.898;6.992;2023-06-24T10:06:33;6.43;;;5.18;;
61200;SDS011;47065;52.898;6.992;2023-06-24T10:08:59;6.30;;;5.22;;
61200;SDS011;47065;52.898;6.992;2023-06-24T10:11:25;5.30;;;4.80;;
61200;SDS011;47065;52.898;6.992;2023-06-24T10:13:52;6.53;;;5.78;;
61200;SDS011;47065;52.898;6.992;2023-06-24T10:16:18;3.97;;;3.67;;
61200;SDS011;47065;52.898;6.992;2023-06-24T10:18:44;5.28;;;4.80;;
61200;SDS011;47065;52.898;6.992;2023-06-24T10:21:11;6.88;;;4.90;;
61200;SDS011;47065;52.898;6.992;2023-06-24T10:26:21;5.97;;;5.45;;
61200;SDS011;47065;52.898;6.992;2023-06-24T10:34:53;4.10;;;3.80;;
61200;SDS011;47065;52.898;6.992;2023-06-24T10:44:49;4.93;;;4.18;;
61200;SDS011;47065;52.898;6.992;2023-06-24T10:47:16;5.80;;;4.20;;
61200;SDS011;47065;52.898;6.992;2023-06-24T10:49:42;5.15;;;4.57;;
61200;SDS011;47065;52.898;6.992;2023-06-24T10:52:08;4.82;;;3.95;;
61200;SDS011;47065;52.898;6.992;2023-06-24T10:54:35;4.60;;;4.20;;
61200;SDS011;47065;52.898;6.992;2023-06-24T10:57:05;5.07;;;4.55;;
61200;SDS011;47065;52.898;6.992;2023-06-24T10:59:35;6.82;;;4.18;;
61200;SDS011;47065;52.898;6.992;2023-06-24T11:02:08;4.90;;;4.50;;
61200;SDS011;47065;52.898;6.992;2023-06-24T11:04:43;4.80;;;4.30;;
61200;SDS011;47065;52.898;6.992;2023-06-24T11:07:10;5.20;;;4.68;;
61200;SDS011;47065;52.898;6.992;2023-06-24T11:09:36;5.25;;;4.13;;
61200;SDS011;47065;52.898;6.992;2023-06-24T11:12:02;4.50;;;4.10;;
61200;SDS011;47065;52.898;6.992;2023-06-24T11:14:28;4.65;;;4.10;;
61200;SDS011;47065;52.898;6.992;2023-06-24T11:16:54;3.38;;;3.17;;
61200;SDS011;47065;52.898;6.992;2023-06-24T11:19:20;4.38;;;3.40;;
61200;SDS011;47065;52.898;6.992;2023-06-24T11:21:45;3.08;;;2.65;;
61200;SDS011;47065;52.898;6.992;2023-06-24T11:24:11;4.00;;;3.28;;
61200;SDS011;47065;52.898;6.992;2023-06-24T11:26:38;3.58;;;3.13;;
61200;SDS011;47065;52.898;6.992;2023-06-24T11:29:10;3.20;;;2.90;;
61200;SDS011;47065;52.898;6.992;2023-06-24T11:31:36;5.70;;;3.70;;
61200;SDS011;47065;52.898;6.992;2023-06-24T11:34:02;4.82;;;3.75;;
61200;SDS011;47065;52.898;6.992;2023-06-24T11:36:29;4.40;;;3.53;;
61200;SDS011;47065;52.898;6.992;2023-06-24T11:38:55;6.57;;;3.22;;
61200;SDS011;47065;52.898;6.992;2023-06-24T11:41:21;3.40;;;3.10;;
61200;SDS011;47065;52.898;6.992;2023-06-24T11:43:47;4.18;;;3.15;;
61200;SDS011;47065;52.898;6.992;2023-06-24T11:46:25;5.47;;;3.00;;
61200;SDS011;47065;52.898;6.992;2023-06-24T11:48:52;3.50;;;3.08;;
61200;SDS011;47065;52.898;6.992;2023-06-24T11:51:35;3.30;;;3.00;;
61200;SDS011;47065;52.898;6.992;2023-06-24T11:54:02;3.38;;;2.88;;
61200;SDS011;47065;52.898;6.992;2023-06-24T11:56:35;2.92;;;2.67;;
61200;SDS011;47065;52.898;6.992;2023-06-24T11:59:03;3.45;;;3.00;;
61200;SDS011;47065;52.898;6.992;2023-06-24T12:01:33;2.88;;;2.42;;
61200;SDS011;47065;52.898;6.992;2023-06-24T12:04:20;3.85;;;2.95;;
61200;SDS011;47065;52.898;6.992;2023-06-24T12:06:45;2.80;;;2.60;;
61200;SDS011;47065;52.898;6.992;2023-06-24T12:09:11;3.90;;;3.15;;
61200;SDS011;47065;52.898;6.992;2023-06-24T12:11:37;4.97;;;3.10;;
61200;SDS011;47065;52.898;6.992;2023-06-24T12:14:03;3.05;;;2.75;;
61200;SDS011;47065;52.898;6.992;2023-06-24T12:16:30;3.60;;;2.83;;
61200;SDS011;47065;52.898;6.992;2023-06-24T12:18:56;3.60;;;3.30;;
61200;SDS011;47065;52.898;6.992;2023-06-24T12:21:22;2.72;;;2.53;;
61200;SDS011;47065;52.898;6.992;2023-06-24T12:23:47;4.20;;;2.80;;
61200;SDS011;47065;52.898;6.992;2023-06-24T12:26:13;2.72;;;2.53;;
61200;SDS011;47065;52.898;6.992;2023-06-24T12:28:39;3.63;;;2.63;;
61200;SDS011;47065;52.898;6.992;2023-06-24T12:31:04;3.13;;;2.80;;
61200;SDS011;47065;52.898;6.992;2023-06-24T12:33:30;4.60;;;2.42;;
61200;SDS011;47065;52.898;6.992;2023-06-24T12:35:56;3.78;;;3.10;;
61200;SDS011;47065;52.898;6.992;2023-06-24T12:38:22;3.25;;;2.83;;
61200;SDS011;47065;52.898;6.992;2023-06-24T12:40:47;5.05;;;2.63;;
61200;SDS011;47065;52.898;6.992;2023-06-24T12:43:13;3.85;;;3.53;;
61200;SDS011;47065;52.898;6.992;2023-06-24T12:45:40;4.00;;;2.85;;
61200;SDS011;47065;52.898;6.992;2023-06-24T12:48:08;3.58;;;2.88;;
61200;SDS011;47065;52.898;6.992;2023-06-24T12:50:34;3.10;;;2.83;;
61200;SDS011;47065;52.898;6.992;2023-06-24T12:53:00;2.85;;;2.65;;
61200;SDS011;47065;52.898;6.992;2023-06-24T12:55:26;2.72;;;2.53;;
61200;SDS011;47065;52.898;6.992;2023-06-24T12:57:52;2.97;;;2.72;;
61200;SDS011;47065;52.898;6.992;2023-06-24T13:00:22;2.90;;;2.70;;
61200;SDS011;47065;52.898;6.992;2023-06-24T13:02:49;2.97;;;2.60;;
61200;SDS011;47065;52.898;6.992;2023-06-24T13:05:16;3.30;;;3.00;;
61200;SDS011;47065;52.898;6.992;2023-06-24T13:07:42;4.30;;;2.72;;
61200;SDS011;47065;52.898;6.992;2023-06-24T13:10:08;4.30;;;3.40;;
61200;SDS011;47065;52.898;6.992;2023-06-24T13:12:35;3.13;;;2.60;;
61200;SDS011;47065;52.898;6.992;2023-06-24T13:15:05;4.55;;;2.85;;
61200;SDS011;47065;52.898;6.992;2023-06-24T13:17:31;3.05;;;2.85;;
61200;SDS011;47065;52.898;6.992;2023-06-24T13:19:57;3.33;;;3.03;;
61200;SDS011;47065;52.898;6.992;2023-06-24T13:22:23;3.10;;;2.78;;
61200;SDS011;47065;52.898;6.992;2023-06-24T13:24:49;3.25;;;2.92;;
61200;SDS011;47065;52.898;6.992;2023-06-24T13:27:15;4.07;;;2.78;;
61200;SDS011;47065;52.898;6.992;2023-06-24T13:29:41;3.60;;;3.30;;
61200;SDS011;47065;52.898;6.992;2023-06-24T13:32:07;3.30;;;2.30;;
61200;SDS011;47065;52.898;6.992;2023-06-24T13:34:33;2.83;;;2.60;;
61200;SDS011;47065;52.898;6.992;2023-06-24T13:37:00;3.88;;;2.80;;
61200;SDS011;47065;52.898;6.992;2023-06-24T13:39:25;3.83;;;3.45;;
61200;SDS011;47065;52.898;6.992;2023-06-24T13:41:52;3.13;;;2.80;;
61200;SDS011;47065;52.898;6.992;2023-06-24T13:44:18;3.33;;;2.90;;
61200;SDS011;47065;52.898;6.992;2023-06-24T13:46:44;3.05;;;2.85;;
61200;SDS011;47065;52.898;6.992;2023-06-24T13:49:10;3.35;;;3.13;;
61200;SDS011;47065;52.898;6.992;2023-06-24T13:51:36;4.47;;;2.50;;
61200;SDS011;47065;52.898;6.992;2023-06-24T13:54:02;3.95;;;3.13;;
61200;SDS011;47065;52.898;6.992;2023-06-24T13:56:28;3.60;;;3.28;;
61200;SDS011;47065;52.898;6.992;2023-06-24T13:58:54;3.22;;;2.65;;
61200;SDS011;47065;52.898;6.992;2023-06-24T14:01:20;3.90;;;3.35;;
61200;SDS011;47065;52.898;6.992;2023-06-24T14:03:47;3.78;;;2.95;;
61200;SDS011;47065;52.898;6.992;2023-06-24T14:06:14;3.22;;;2.92;;
61200;SDS011;47065;52.898;6.992;2023-06-24T14:08:40;3.35;;;3.05;;
61200;SDS011;47065;52.898;6.992;2023-06-24T14:11:07;3.08;;;2.72;;
61200;SDS011;47065;52.898;6.992;2023-06-24T14:13:32;4.25;;;2.97;;
61200;SDS011;47065;52.898;6.992;2023-06-24T14:15:58;3.78;;;3.20;;
61200;SDS011;47065;52.898;6.992;2023-06-24T14:18:24;4.43;;;3.17;;
61200;SDS011;47065;52.898;6.992;2023-06-24T14:20:50;5.13;;;3.80;;
61200;SDS011;47065;52.898;6.992;2023-06-24T14:23:16;3.28;;;3.03;;
61200;SDS011;47065;52.898;6.992;2023-06-24T14:25:42;3.88;;;3.20;;
61200;SDS011;47065;52.898;6.992;2023-06-24T14:28:08;3.30;;;3.00;;
61200;SDS011;47065;52.898;6.992;2023-06-24T14:30:34;3.63;;;3.20;;
61200;SDS011;47065;52.898;6.992;2023-06-24T14:33:00;6.65;;;3.63;;
61200;SDS011;47065;52.898;6.992;2023-06-24T14:35:26;5.55;;;3.75;;
61200;SDS011;47065;52.898;6.992;2023-06-24T14:37:51;3.40;;;3.05;;
61200;SDS011;47065;52.898;6.992;2023-06-24T14:40:17;4.13;;;3.63;;
61200;SDS011;47065;52.898;6.992;2023-06-24T14:42:43;3.83;;;3.38;;
61200;SDS011;47065;52.898;6.992;2023-06-24T14:45:09;6.20;;;3.47;;
61200;SDS011;47065;52.898;6.992;2023-06-24T14:47:35;7.03;;;3.15;;
61200;SDS011;47065;52.898;6.992;2023-06-24T14:50:01;3.67;;;3.38;;
61200;SDS011;47065;52.898;6.992;2023-06-24T14:52:28;3.70;;;3.20;;
61200;SDS011;47065;52.898;6.992;2023-06-24T14:54:54;12.23;;;3.45;;
61200;SDS011;47065;52.898;6.992;2023-06-24T14:57:20;4.25;;;2.90;;
61200;SDS011;47065;52.898;6.992;2023-06-24T14:59:48;6.00;;;3.05;;
61200;SDS011;47065;52.898;6.992;2023-06-24T15:02:14;4.07;;;3.53;;
61200;SDS011;47065;52.898;6.992;2023-06-24T15:04:39;5.00;;;2.80;;